sensor_id;sensor_type;location;lat;lon;timestamp;temperature;humidity
16441;DHT22;8330;-33.858;151.184;2022-07-06T00:01:15;16.60;99.90
16441;DHT22;8330;-33.858;151.184;2022-07-06T00:03:50;16.60;99.90
16441;DHT22;8330;-33.858;151.184;2022-07-06T00:06:20;16.60;99.90
16441;DHT22;8330;-33.858;151.184;2022-07-06T00:08:52;16.60;99.90
16441;DHT22;8330;-33.858;151.184;2022-07-06T00:11:24;16.60;99.90
16441;DHT22;8330;-33.858;151.184;2022-07-06T00:13:56;16.60;99.90
16441;DHT22;8330;-33.858;151.184;2022-07-06T00:16:27;16.60;99.90
16441;DHT22;8330;-33.858;151.184;2022-07-06T00:18:59;16.70;99.90
16441;DHT22;8330;-33.858;151.184;2022-07-06T00:21:30;16.70;99.90
16441;DHT22;8330;-33.858;151.184;2022-07-06T00:24:01;16.70;99.90
16441;DHT22;8330;-33.858;151.184;2022-07-06T00:26:31;16.70;99.90
16441;DHT22;8330;-33.858;151.184;2022-07-06T00:29:03;16.70;99.90
16441;DHT22;8330;-33.858;151.184;2022-07-06T00:31:36;16.70;99.90
16441;DHT22;8330;-33.858;151.184;2022-07-06T00:34:09;16.70;99.90
16441;DHT22;8330;-33.858;151.184;2022-07-06T00:36:40;16.70;99.90
16441;DHT22;8330;-33.858;151.184;2022-07-06T00:39:14;16.70;99.90
16441;DHT22;8330;-33.858;151.184;2022-07-06T00:41:46;16.70;99.90
16441;DHT22;8330;-33.858;151.184;2022-07-06T00:44:17;16.70;99.90
16441;DHT22;8330;-33.858;151.184;2022-07-06T00:46:47;16.80;99.90
16441;DHT22;8330;-33.858;151.184;2022-07-06T00:49:20;16.70;99.90
16441;DHT22;8330;-33.858;151.184;2022-07-06T00:52:07;16.70;99.90
16441;DHT22;8330;-33.858;151.184;2022-07-06T00:54:38;16.70;99.90
16441;DHT22;8330;-33.858;151.184;2022-07-06T00:57:10;16.70;99.90
16441;DHT22;8330;-33.858;151.184;2022-07-06T00:59:41;16.70;99.90
16441;DHT22;8330;-33.858;151.184;2022-07-06T01:02:13;16.70;99.90
16441;DHT22;8330;-33.858;151.184;2022-07-06T01:04:46;16.70;99.90
16441;DHT22;8330;-33.858;151.184;2022-07-06T01:07:17;16.70;99.90
16441;DHT22;8330;-33.858;151.184;2022-07-06T01:09:47;16.60;99.90
16441;DHT22;8330;-33.858;151.184;2022-07-06T01:12:18;16.60;99.90
16441;DHT22;8330;-33.858;151.184;2022-07-06T01:14:49;16.60;99.90
16441;DHT22;8330;-33.858;151.184;2022-07-06T01:17:20;16.50;99.90
16441;DHT22;8330;-33.858;151.184;2022-07-06T01:19:53;16.50;99.90
16441;DHT22;8330;-33.858;151.184;2022-07-06T01:22:27;16.50;99.90
16441;DHT22;8330;-33.858;151.184;2022-07-06T01:24:58;16.60;99.90
16441;DHT22;8330;-33.858;151.184;2022-07-06T01:27:32;16.60;99.90
16441;DHT22;8330;-33.858;151.184;2022-07-06T01:30:06;16.70;99.90
16441;DHT22;8330;-33.858;151.184;2022-07-06T01:32:39;16.70;99.90
16441;DHT22;8330;-33.858;151.184;2022-07-06T01:35:11;16.70;99.90
16441;DHT22;8330;-33.858;151.184;2022-07-06T01:37:45;16.70;99.90
16441;DHT22;8330;-33.858;151.184;2022-07-06T01:40:16;16.70;99.90
16441;DHT22;8330;-33.858;151.184;2022-07-06T01:42:49;16.70;99.90
16441;DHT22;8330;-33.858;151.184;2022-07-06T01:45:20;16.70;99.90
16441;DHT22;8330;-33.858;151.184;2022-07-06T01:47:51;16.80;99.90
16441;DHT22;8330;-33.858;151.184;2022-07-06T01:50:22;16.80;99.90
16441;DHT22;8330;-33.858;151.184;2022-07-06T01:52:54;16.80;99.90
16441;DHT22;8330;-33.858;151.184;2022-07-06T01:55:26;16.80;99.90
16441;DHT22;8330;-33.858;151.184;2022-07-06T01:57:57;16.80;99.90
16441;DHT22;8330;-33.858;151.184;2022-07-06T02:00:28;16.80;99.90
16441;DHT22;8330;-33.858;151.184;2022-07-06T02:02:59;16.80;99.90
16441;DHT22;8330;-33.858;151.184;2022-07-06T02:05:31;16.80;99.90
16441;DHT22;8330;-33.858;151.184;2022-07-06T02:08:05;16.80;99.90
16441;DHT22;8330;-33.858;151.184;2022-07-06T02:10:35;16.70;99.90
16441;DHT22;8330;-33.858;151.184;2022-07-06T02:13:06;16.80;99.90
16441;DHT22;8330;-33.858;151.184;2022-07-06T02:15:37;16.80;99.90
16441;DHT22;8330;-33.858;151.184;2022-07-06T02:18:07;16.70;99.90
16441;DHT22;8330;-33.858;151.184;2022-07-06T02:20:38;16.70;99.90
16441;DHT22;8330;-33.858;151.184;2022-07-06T02:23:11;16.60;99.90
16441;DHT22;8330;-33.858;151.184;2022-07-06T02:25:45;16.60;99.90
16441;DHT22;8330;-33.858;151.184;2022-07-06T02:28:18;16.60;99.90
16441;DHT22;8330;-33.858;151.184;2022-07-06T02:30:49;16.70;99.90
16441;DHT22;8330;-33.858;151.184;2022-07-06T02:33:20;16.70;99.90
16441;DHT22;8330;-33.858;151.184;2022-07-06T02:35:50;16.70;99.90
16441;DHT22;8330;-33.858;151.184;2022-07-06T02:38:23;16.70;99.90
16441;DHT22;8330;-33.858;151.184;2022-07-06T02:40:54;16.80;99.90
16441;DHT22;8330;-33.858;151.184;2022-07-06T02:43:24;16.80;99.90
16441;DHT22;8330;-33.858;151.184;2022-07-06T02:45:55;16.80;99.90
16441;DHT22;8330;-33.858;151.184;2022-07-06T02:48:26;16.70;99.90
16441;DHT22;8330;-33.858;151.184;2022-07-06T02:50:57;16.80;99.90
16441;DHT22;8330;-33.858;151.184;2022-07-06T02:53:33;16.70;99.90
16441;DHT22;8330;-33.858;151.184;2022-07-06T02:56:07;16.70;99.90
16441;DHT22;8330;-33.858;151.184;2022-07-06T02:58:37;16.70;99.90
16441;DHT22;8330;-33.858;151.184;2022-07-06T03:01:08;16.70;99.90
16441;DHT22;8330;-33.858;151.184;2022-07-06T03:03:39;16.60;99.90
16441;DHT22;8330;-33.858;151.184;2022-07-06T03:06:09;16.40;99.90
16441;DHT22;8330;-33.858;151.184;2022-07-06T03:08:45;16.50;99.90
16441;DHT22;8330;-33.858;151.184;2022-07-06T03:11:15;16.50;99.90
16441;DHT22;8330;-33.858;151.184;2022-07-06T03:13:46;16.50;99.90
16441;DHT22;8330;-33.858;151.184;2022-07-06T03:16:19;16.60;99.90
16441;DHT22;8330;-33.858;151.184;2022-07-06T03:18:53;16.60;99.90
16441;DHT22;8330;-33.858;151.184;2022-07-06T03:21:24;16.60;99.90
16441;DHT22;8330;-33.858;151.184;2022-07-06T03:23:56;16.60;99.90
16441;DHT22;8330;-33.858;151.184;2022-07-06T03:26:27;16.60;99.90
16441;DHT22;8330;-33.858;151.184;2022-07-06T03:28:57;16.60;99.90
16441;DHT22;8330;-33.858;151.184;2022-07-06T03:31:30;16.60;99.90
16441;DHT22;8330;-33.858;151.184;2022-07-06T03:34:01;16.70;99.90
16441;DHT22;8330;-33.858;151.184;2022-07-06T03:36:31;16.70;99.90
16441;DHT22;8330;-33.858;151.184;2022-07-06T03:39:04;16.60;99.90
16441;DHT22;8330;-33.858;151.184;2022-07-06T03:41:35;16.60;99.90
16441;DHT22;8330;-33.858;151.184;2022-07-06T03:44:11;16.60;99.90
16441;DHT22;8330;-33.858;151.184;2022-07-06T03:46:42;16.70;99.90
16441;DHT22;8330;-33.858;151.184;2022-07-06T03:49:13;16.70;99.90
16441;DHT22;8330;-33.858;151.184;2022-07-06T03:51:43;16.70;99.90
16441;DHT22;8330;-33.858;151.184;2022-07-06T03:54:16;16.70;99.90
16441;DHT22;8330;-33.858;151.184;2022-07-06T03:56:47;16.70;99.90
16441;DHT22;8330;-33.858;151.184;2022-07-06T03:59:17;16.80;99.90
16441;DHT22;8330;-33.858;151.184;2022-07-06T04:01:48;16.80;99.90
16441;DHT22;8330;-33.858;151.184;2022-07-06T04:04:20;16.70;99.90
16441;DHT22;8330;-33.858;151.184;2022-07-06T04:06:53;16.80;99.90
16441;DHT22;8330;-33.858;151.184;2022-07-06T04:09:25;16.80;99.90
16441;DHT22;8330;-33.858;151.184;2022-07-06T04:11:56;16.80;99.90
16441;DHT22;8330;-33.858;151.184;2022-07-06T04:14:26;16.70;99.90
16441;DHT22;8330;-33.858;151.184;2022-07-06T04:16:57;16.70;99.90
16441;DHT22;8330;-33.858;151.184;2022-07-06T04:19:48;16.70;99.90
16441;DHT22;8330;-33.858;151.184;2022-07-06T04:22:18;16.60;99.90
16441;DHT22;8330;-33.858;151.184;2022-07-06T04:24:51;16.60;99.90
16441;DHT22;8330;-33.858;151.184;2022-07-06T04:27:24;16.60;99.90
16441;DHT22;8330;-33.858;151.184;2022-07-06T04:29:55;16.60;99.90
16441;DHT22;8330;-33.858;151.184;2022-07-06T04:32:26;16.60;99.90
16441;DHT22;8330;-33.858;151.184;2022-07-06T04:34:58;16.60;99.90
16441;DHT22;8330;-33.858;151.184;2022-07-06T04:37:29;16.70;99.90
16441;DHT22;8330;-33.858;151.184;2022-07-06T04:40:01;16.60;99.90
16441;DHT22;8330;-33.858;151.184;2022-07-06T04:42:32;16.70;99.90
16441;DHT22;8330;-33.858;151.184;2022-07-06T04:45:03;16.70;99.90
16441;DHT22;8330;-33.858;151.184;2022-07-06T04:47:34;16.70;99.90
16441;DHT22;8330;-33.858;151.184;2022-07-06T04:50:05;16.80;99.90
16441;DHT22;8330;-33.858;151.184;2022-07-06T04:52:36;16.80;99.90
16441;DHT22;8330;-33.858;151.184;2022-07-06T04:55:09;16.70;99.90
16441;DHT22;8330;-33.858;151.184;2022-07-06T04:57:42;16.70;99.90
16441;DHT22;8330;-33.858;151.184;2022-07-06T05:00:13;16.70;99.90
16441;DHT22;8330;-33.858;151.184;2022-07-06T05:02:44;16.70;99.90
16441;DHT22;8330;-33.858;151.184;2022-07-06T05:05:14;16.70;99.90
16441;DHT22;8330;-33.858;151.184;2022-07-06T05:07:45;16.60;99.90
16441;DHT22;8330;-33.858;151.184;2022-07-06T05:10:17;16.60;99.90
16441;DHT22;8330;-33.858;151.184;2022-07-06T05:12:48;16.50;99.90
16441;DHT22;8330;-33.858;151.184;2022-07-06T05:15:18;16.40;99.90
16441;DHT22;8330;-33.858;151.184;2022-07-06T05:17:49;16.30;99.90
16441;DHT22;8330;-33.858;151.184;2022-07-06T05:20:20;16.30;99.90
16441;DHT22;8330;-33.858;151.184;2022-07-06T05:22:51;16.20;99.90
16441;DHT22;8330;-33.858;151.184;2022-07-06T05:25:23;16.30;99.90
16441;DHT22;8330;-33.858;151.184;2022-07-06T05:27:54;16.30;99.90
16441;DHT22;8330;-33.858;151.184;2022-07-06T05:30:24;16.30;99.90
16441;DHT22;8330;-33.858;151.184;2022-07-06T05:32:55;16.30;99.90
16441;DHT22;8330;-33.858;151.184;2022-07-06T05:35:26;16.30;99.90
16441;DHT22;8330;-33.858;151.184;2022-07-06T05:37:57;16.20;99.90
16441;DHT22;8330;-33.858;151.184;2022-07-06T05:40:30;16.20;99.90
16441;DHT22;8330;-33.858;151.184;2022-07-06T05:43:01;16.30;99.90
16441;DHT22;8330;-33.858;151.184;2022-07-06T05:45:32;16.30;99.90
16441;DHT22;8330;-33.858;151.184;2022-07-06T05:48:03;16.20;99.90
16441;DHT22;8330;-33.858;151.184;2022-07-06T05:50:50;16.20;99.90
16441;DHT22;8330;-33.858;151.184;2022-07-06T05:53:23;16.20;99.90
16441;DHT22;8330;-33.858;151.184;2022-07-06T05:55:56;16.20;99.90
16441;DHT22;8330;-33.858;151.184;2022-07-06T05:58:30;16.20;99.90
16441;DHT22;8330;-33.858;151.184;2022-07-06T06:01:00;16.10;99.90
16441;DHT22;8330;-33.858;151.184;2022-07-06T06:03:31;16.10;99.90
16441;DHT22;8330;-33.858;151.184;2022-07-06T06:06:02;16.20;99.90
16441;DHT22;8330;-33.858;151.184;2022-07-06T06:08:32;16.20;99.90
16441;DHT22;8330;-33.858;151.184;2022-07-06T06:11:08;16.20;99.90
16441;DHT22;8330;-33.858;151.184;2022-07-06T06:13:39;16.20;99.90
16441;DHT22;8330;-33.858;151.184;2022-07-06T06:16:09;16.20;99.90
16441;DHT22;8330;-33.858;151.184;2022-07-06T06:18:40;16.20;99.90
16441;DHT22;8330;-33.858;151.184;2022-07-06T06:21:11;16.20;99.90
16441;DHT22;8330;-33.858;151.184;2022-07-06T06:23:45;16.20;99.90
16441;DHT22;8330;-33.858;151.184;2022-07-06T06:26:18;16.30;99.90
16441;DHT22;8330;-33.858;151.184;2022-07-06T06:28:48;16.30;99.90
16441;DHT22;8330;-33.858;151.184;2022-07-06T06:31:19;16.30;99.90
16441;DHT22;8330;-33.858;151.184;2022-07-06T06:33:50;16.30;99.90
16441;DHT22;8330;-33.858;151.184;2022-07-06T06:36:20;16.30;99.90
16441;DHT22;8330;-33.858;151.184;2022-07-06T06:38:51;16.30;99.90
16441;DHT22;8330;-33.858;151.184;2022-07-06T06:41:23;16.40;99.90
16441;DHT22;8330;-33.858;151.184;2022-07-06T06:43:54;16.30;99.90
16441;DHT22;8330;-33.858;151.184;2022-07-06T06:46:28;16.40;99.90
16441;DHT22;8330;-33.858;151.184;2022-07-06T06:48:58;16.40;99.90
16441;DHT22;8330;-33.858;151.184;2022-07-06T06:51:29;16.40;99.90
16441;DHT22;8330;-33.858;151.184;2022-07-06T06:54:00;16.40;99.90
16441;DHT22;8330;-33.858;151.184;2022-07-06T06:56:35;16.40;99.90
16441;DHT22;8330;-33.858;151.184;2022-07-06T06:59:06;16.40;99.90
16441;DHT22;8330;-33.858;151.184;2022-07-06T07:01:39;16.50;99.90
16441;DHT22;8330;-33.858;151.184;2022-07-06T07:04:10;16.50;99.90
16441;DHT22;8330;-33.858;151.184;2022-07-06T07:06:42;16.40;99.90
16441;DHT22;8330;-33.858;151.184;2022-07-06T07:09:12;16.50;99.90
16441;DHT22;8330;-33.858;151.184;2022-07-06T07:11:45;16.50;99.90
16441;DHT22;8330;-33.858;151.184;2022-07-06T07:14:16;16.50;99.90
16441;DHT22;8330;-33.858;151.184;2022-07-06T07:16:47;16.50;99.90
16441;DHT22;8330;-33.858;151.184;2022-07-06T07:19:17;16.50;99.90
16441;DHT22;8330;-33.858;151.184;2022-07-06T07:21:48;16.60;99.90
16441;DHT22;8330;-33.858;151.184;2022-07-06T07:24:21;16.60;99.90
16441;DHT22;8330;-33.858;151.184;2022-07-06T07:26:54;16.50;99.90
16441;DHT22;8330;-33.858;151.184;2022-07-06T07:29:26;16.60;99.90
16441;DHT22;8330;-33.858;151.184;2022-07-06T07:31:57;16.50;99.90
16441;DHT22;8330;-33.858;151.184;2022-07-06T07:34:28;16.50;99.90
16441;DHT22;8330;-33.858;151.184;2022-07-06T07:37:00;16.50;99.90
16441;DHT22;8330;-33.858;151.184;2022-07-06T07:39:33;16.40;99.90
16441;DHT22;8330;-33.858;151.184;2022-07-06T07:42:07;16.40;99.90
16441;DHT22;8330;-33.858;151.184;2022-07-06T07:44:37;16.40;99.90
16441;DHT22;8330;-33.858;151.184;2022-07-06T07:47:08;16.40;99.90
16441;DHT22;8330;-33.858;151.184;2022-07-06T07:49:39;16.40;99.90
16441;DHT22;8330;-33.858;151.184;2022-07-06T07:52:10;16.40;99.90
16441;DHT22;8330;-33.858;151.184;2022-07-06T07:54:40;16.30;99.90
16441;DHT22;8330;-33.858;151.184;2022-07-06T07:57:13;16.30;99.90
16441;DHT22;8330;-33.858;151.184;2022-07-06T07:59:45;16.30;99.90
16441;DHT22;8330;-33.858;151.184;2022-07-06T08:02:15;16.30;99.90
16441;DHT22;8330;-33.858;151.184;2022-07-06T08:04:47;16.40;99.90
16441;DHT22;8330;-33.858;151.184;2022-07-06T08:07:20;16.40;99.90
16441;DHT22;8330;-33.858;151.184;2022-07-06T08:09:51;16.40;99.90
16441;DHT22;8330;-33.858;151.184;2022-07-06T08:12:26;16.40;99.90
16441;DHT22;8330;-33.858;151.184;2022-07-06T08:14:59;16.40;99.90
16441;DHT22;8330;-33.858;151.184;2022-07-06T08:17:30;16.40;99.90
16441;DHT22;8330;-33.858;151.184;2022-07-06T08:20:00;16.40;99.90
16441;DHT22;8330;-33.858;151.184;2022-07-06T08:22:36;16.40;99.90
16441;DHT22;8330;-33.858;151.184;2022-07-06T08:25:07;16.40;99.90
16441;DHT22;8330;-33.858;151.184;2022-07-06T08:27:41;16.40;99.90
16441;DHT22;8330;-33.858;151.184;2022-07-06T08:30:12;16.40;99.90
16441;DHT22;8330;-33.858;151.184;2022-07-06T08:32:44;16.40;99.90
16441;DHT22;8330;-33.858;151.184;2022-07-06T08:35:15;16.40;99.90
16441;DHT22;8330;-33.858;151.184;2022-07-06T08:37:46;16.40;99.90
16441;DHT22;8330;-33.858;151.184;2022-07-06T08:40:17;16.40;99.90
16441;DHT22;8330;-33.858;151.184;2022-07-06T08:42:54;16.40;99.90
16441;DHT22;8330;-33.858;151.184;2022-07-06T08:45:26;16.40;99.90
16441;DHT22;8330;-33.858;151.184;2022-07-06T08:48:00;16.40;99.90
16441;DHT22;8330;-33.858;151.184;2022-07-06T08:50:36;16.40;99.90
16441;DHT22;8330;-33.858;151.184;2022-07-06T08:53:09;16.40;99.90
16441;DHT22;8330;-33.858;151.184;2022-07-06T08:55:40;16.40;99.90
16441;DHT22;8330;-33.858;151.184;2022-07-06T08:58:14;16.50;99.90
16441;DHT22;8330;-33.858;151.184;2022-07-06T09:00:45;16.50;99.90
16441;DHT22;8330;-33.858;151.184;2022-07-06T09:03:16;16.50;99.90
16441;DHT22;8330;-33.858;151.184;2022-07-06T09:05:47;16.50;99.90
16441;DHT22;8330;-33.858;151.184;2022-07-06T09:08:20;16.50;99.90
16441;DHT22;8330;-33.858;151.184;2022-07-06T09:10:51;16.50;99.90
16441;DHT22;8330;-33.858;151.184;2022-07-06T09:13:24;16.50;99.90
16441;DHT22;8330;-33.858;151.184;2022-07-06T09:15:55;16.50;99.90
16441;DHT22;8330;-33.858;151.184;2022-07-06T09:18:27;16.50;99.90
16441;DHT22;8330;-33.858;151.184;2022-07-06T09:20:58;16.50;99.90
16441;DHT22;8330;-33.858;151.184;2022-07-06T09:23:28;16.50;99.90
16441;DHT22;8330;-33.858;151.184;2022-07-06T09:26:01;16.50;99.90
16441;DHT22;8330;-33.858;151.184;2022-07-06T09:28:45;16.40;99.90
16441;DHT22;8330;-33.858;151.184;2022-07-06T09:31:15;16.40;99.90
16441;DHT22;8330;-33.858;151.184;2022-07-06T09:33:57;16.40;99.90
16441;DHT22;8330;-33.858;151.184;2022-07-06T09:36:43;16.40;99.90
16441;DHT22;8330;-33.858;151.184;2022-07-06T09:39:18;16.40;99.90
16441;DHT22;8330;-33.858;151.184;2022-07-06T09:41:50;16.40;99.90
16441;DHT22;8330;-33.858;151.184;2022-07-06T09:44:26;16.40;99.90
16441;DHT22;8330;-33.858;151.184;2022-07-06T09:46:58;16.40;99.90
16441;DHT22;8330;-33.858;151.184;2022-07-06T09:49:29;16.50;99.90
16441;DHT22;8330;-33.858;151.184;2022-07-06T09:52:02;16.40;99.90
16441;DHT22;8330;-33.858;151.184;2022-07-06T09:54:38;16.40;99.90
16441;DHT22;8330;-33.858;151.184;2022-07-06T09:57:10;16.40;99.90
16441;DHT22;8330;-33.858;151.184;2022-07-06T09:59:43;16.40;99.90
16441;DHT22;8330;-33.858;151.184;2022-07-06T10:02:21;16.40;99.90
16441;DHT22;8330;-33.858;151.184;2022-07-06T10:04:52;16.40;99.90
16441;DHT22;8330;-33.858;151.184;2022-07-06T10:07:25;16.40;99.90
16441;DHT22;8330;-33.858;151.184;2022-07-06T10:09:59;16.40;99.90
16441;DHT22;8330;-33.858;151.184;2022-07-06T10:12:30;16.40;99.90
16441;DHT22;8330;-33.858;151.184;2022-07-06T10:15:05;16.50;99.90
16441;DHT22;8330;-33.858;151.184;2022-07-06T10:17:38;16.50;99.90
16441;DHT22;8330;-33.858;151.184;2022-07-06T10:20:09;16.50;99.90
16441;DHT22;8330;-33.858;151.184;2022-07-06T10:22:41;16.50;99.90
16441;DHT22;8330;-33.858;151.184;2022-07-06T10:25:13;16.60;99.90
16441;DHT22;8330;-33.858;151.184;2022-07-06T10:27:44;16.60;99.90
16441;DHT22;8330;-33.858;151.184;2022-07-06T10:30:17;16.60;99.90
16441;DHT22;8330;-33.858;151.184;2022-07-06T10:32:49;16.60;99.90
16441;DHT22;8330;-33.858;151.184;2022-07-06T10:35:21;16.50;99.90
16441;DHT22;8330;-33.858;151.184;2022-07-06T10:38:05;16.60;99.90
16441;DHT22;8330;-33.858;151.184;2022-07-06T10:40:37;16.60;99.90
16441;DHT22;8330;-33.858;151.184;2022-07-06T10:43:31;16.50;99.90
16441;DHT22;8330;-33.858;151.184;2022-07-06T10:46:10;16.40;99.90
16441;DHT22;8330;-33.858;151.184;2022-07-06T10:48:43;16.30;99.90
16441;DHT22;8330;-33.858;151.184;2022-07-06T10:51:22;16.20;99.90
16441;DHT22;8330;-33.858;151.184;2022-07-06T10:53:57;16.20;99.90
16441;DHT22;8330;-33.858;151.184;2022-07-06T10:56:36;16.10;99.90
16441;DHT22;8330;-33.858;151.184;2022-07-06T10:59:10;16.10;99.90
16441;DHT22;8330;-33.858;151.184;2022-07-06T11:02:13;16.10;99.90
16441;DHT22;8330;-33.858;151.184;2022-07-06T11:04:44;16.10;99.90
16441;DHT22;8330;-33.858;151.184;2022-07-06T11:07:15;16.10;99.90
16441;DHT22;8330;-33.858;151.184;2022-07-06T11:09:55;16.10;99.90
16441;DHT22;8330;-33.858;151.184;2022-07-06T11:12:29;16.10;99.90
16441;DHT22;8330;-33.858;151.184;2022-07-06T11:15:01;16.10;99.90
16441;DHT22;8330;-33.858;151.184;2022-07-06T11:17:35;16.00;99.90
16441;DHT22;8330;-33.858;151.184;2022-07-06T11:20:11;16.10;99.90
16441;DHT22;8330;-33.858;151.184;2022-07-06T11:22:42;16.10;99.90
16441;DHT22;8330;-33.858;151.184;2022-07-06T11:25:13;16.00;99.90
16441;DHT22;8330;-33.858;151.184;2022-07-06T11:27:46;16.00;99.90
16441;DHT22;8330;-33.858;151.184;2022-07-06T11:30:17;16.00;99.90
16441;DHT22;8330;-33.858;151.184;2022-07-06T11:32:50;16.00;99.90
16441;DHT22;8330;-33.858;151.184;2022-07-06T11:35:23;16.00;99.90
16441;DHT22;8330;-33.858;151.184;2022-07-06T11:37:53;16.00;99.90
16441;DHT22;8330;-33.858;151.184;2022-07-06T11:40:25;16.00;99.90
16441;DHT22;8330;-33.858;151.184;2022-07-06T11:42:58;16.00;99.90
16441;DHT22;8330;-33.858;151.184;2022-07-06T11:45:29;16.10;99.90
16441;DHT22;8330;-33.858;151.184;2022-07-06T11:48:13;16.10;99.90
16441;DHT22;8330;-33.858;151.184;2022-07-06T11:50:44;16.10;99.90
16441;DHT22;8330;-33.858;151.184;2022-07-06T11:53:30;16.10;99.90
16441;DHT22;8330;-33.858;151.184;2022-07-06T11:56:03;16.10;99.90
16441;DHT22;8330;-33.858;151.184;2022-07-06T11:58:36;16.00;99.90
16441;DHT22;8330;-33.858;151.184;2022-07-06T12:01:10;16.10;99.90
16441;DHT22;8330;-33.858;151.184;2022-07-06T12:03:45;16.00;99.90
16441;DHT22;8330;-33.858;151.184;2022-07-06T12:06:17;16.00;99.90
16441;DHT22;8330;-33.858;151.184;2022-07-06T12:08:49;16.00;99.90
16441;DHT22;8330;-33.858;151.184;2022-07-06T12:11:23;16.00;99.90
16441;DHT22;8330;-33.858;151.184;2022-07-06T12:13:55;16.00;99.90
16441;DHT22;8330;-33.858;151.184;2022-07-06T12:16:31;16.00;99.90
16441;DHT22;8330;-33.858;151.184;2022-07-06T12:19:04;16.00;99.90
16441;DHT22;8330;-33.858;151.184;2022-07-06T12:21:35;15.90;99.90
16441;DHT22;8330;-33.858;151.184;2022-07-06T12:24:08;16.00;99.90
16441;DHT22;8330;-33.858;151.184;2022-07-06T12:26:40;16.00;99.90
16441;DHT22;8330;-33.858;151.184;2022-07-06T12:29:12;16.00;99.90
16441;DHT22;8330;-33.858;151.184;2022-07-06T12:31:47;15.90;99.90
16441;DHT22;8330;-33.858;151.184;2022-07-06T12:34:21;15.90;99.90
16441;DHT22;8330;-33.858;151.184;2022-07-06T12:36:53;15.90;99.90
16441;DHT22;8330;-33.858;151.184;2022-07-06T12:39:25;15.80;99.90
16441;DHT22;8330;-33.858;151.184;2022-07-06T12:42:01;15.80;99.90
16441;DHT22;8330;-33.858;151.184;2022-07-06T12:44:33;15.80;99.90
16441;DHT22;8330;-33.858;151.184;2022-07-06T12:47:16;15.60;99.90
16441;DHT22;8330;-33.858;151.184;2022-07-06T12:49:52;15.50;99.90
16441;DHT22;8330;-33.858;151.184;2022-07-06T12:52:33;15.40;99.90
16441;DHT22;8330;-33.858;151.184;2022-07-06T12:55:05;15.40;99.90
16441;DHT22;8330;-33.858;151.184;2022-07-06T12:57:54;15.40;99.90
16441;DHT22;8330;-33.858;151.184;2022-07-06T13:00:26;15.50;99.90
16441;DHT22;8330;-33.858;151.184;2022-07-06T13:02:56;15.50;99.90
16441;DHT22;8330;-33.858;151.184;2022-07-06T13:05:30;15.50;99.90
16441;DHT22;8330;-33.858;151.184;2022-07-06T13:08:02;15.50;99.90
16441;DHT22;8330;-33.858;151.184;2022-07-06T13:10:33;15.60;99.90
16441;DHT22;8330;-33.858;151.184;2022-07-06T13:13:04;15.60;99.90
16441;DHT22;8330;-33.858;151.184;2022-07-06T13:15:40;15.60;99.90
16441;DHT22;8330;-33.858;151.184;2022-07-06T13:18:11;15.50;99.90
16441;DHT22;8330;-33.858;151.184;2022-07-06T13:20:44;15.50;99.90
16441;DHT22;8330;-33.858;151.184;2022-07-06T13:23:14;15.40;99.90
16441;DHT22;8330;-33.858;151.184;2022-07-06T13:25:45;15.40;99.90
16441;DHT22;8330;-33.858;151.184;2022-07-06T13:28:15;15.40;99.90
16441;DHT22;8330;-33.858;151.184;2022-07-06T13:30:46;15.40;99.90
16441;DHT22;8330;-33.858;151.184;2022-07-06T13:33:17;15.40;99.90
16441;DHT22;8330;-33.858;151.184;2022-07-06T13:35:49;15.40;99.90
16441;DHT22;8330;-33.858;151.184;2022-07-06T13:38:20;15.50;99.90
16441;DHT22;8330;-33.858;151.184;2022-07-06T13:40:51;15.50;99.90
16441;DHT22;8330;-33.858;151.184;2022-07-06T13:43:21;15.50;99.90
16441;DHT22;8330;-33.858;151.184;2022-07-06T13:45:52;15.50;99.90
16441;DHT22;8330;-33.858;151.184;2022-07-06T13:48:23;15.50;99.90
16441;DHT22;8330;-33.858;151.184;2022-07-06T13:50:56;15.40;99.90
16441;DHT22;8330;-33.858;151.184;2022-07-06T13:53:27;15.40;99.90
16441;DHT22;8330;-33.858;151.184;2022-07-06T13:55:59;15.40;99.90
16441;DHT22;8330;-33.858;151.184;2022-07-06T13:58:29;15.30;99.90
16441;DHT22;8330;-33.858;151.184;2022-07-06T14:01:00;15.30;99.90
16441;DHT22;8330;-33.858;151.184;2022-07-06T14:03:31;15.40;99.90
16441;DHT22;8330;-33.858;151.184;2022-07-06T14:06:04;15.40;99.90
16441;DHT22;8330;-33.858;151.184;2022-07-06T14:08:35;15.40;99.90
16441;DHT22;8330;-33.858;151.184;2022-07-06T14:11:08;15.40;99.90
16441;DHT22;8330;-33.858;151.184;2022-07-06T14:13:40;15.40;99.90
16441;DHT22;8330;-33.858;151.184;2022-07-06T14:16:11;15.40;99.90
16441;DHT22;8330;-33.858;151.184;2022-07-06T14:18:45;15.40;99.90
16441;DHT22;8330;-33.858;151.184;2022-07-06T14:21:18;15.40;99.90
16441;DHT22;8330;-33.858;151.184;2022-07-06T14:23:49;15.40;99.90
16441;DHT22;8330;-33.858;151.184;2022-07-06T14:26:20;15.50;99.90
16441;DHT22;8330;-33.858;151.184;2022-07-06T14:28:51;15.50;99.90
16441;DHT22;8330;-33.858;151.184;2022-07-06T14:31:22;15.50;99.90
16441;DHT22;8330;-33.858;151.184;2022-07-06T14:33:53;15.60;99.90
16441;DHT22;8330;-33.858;151.184;2022-07-06T14:36:26;15.60;99.90
16441;DHT22;8330;-33.858;151.184;2022-07-06T14:38:57;15.60;99.90
16441;DHT22;8330;-33.858;151.184;2022-07-06T14:41:29;15.60;99.90
16441;DHT22;8330;-33.858;151.184;2022-07-06T14:44:00;15.70;99.90
16441;DHT22;8330;-33.858;151.184;2022-07-06T14:46:30;15.60;99.90
16441;DHT22;8330;-33.858;151.184;2022-07-06T14:49:02;15.60;99.90
16441;DHT22;8330;-33.858;151.184;2022-07-06T14:51:34;15.60;99.90
16441;DHT22;8330;-33.858;151.184;2022-07-06T14:54:05;15.60;99.90
16441;DHT22;8330;-33.858;151.184;2022-07-06T14:56:36;15.70;99.90
16441;DHT22;8330;-33.858;151.184;2022-07-06T14:59:07;15.70;99.90
16441;DHT22;8330;-33.858;151.184;2022-07-06T15:01:37;15.70;99.90
16441;DHT22;8330;-33.858;151.184;2022-07-06T15:04:08;15.70;99.90
16441;DHT22;8330;-33.858;151.184;2022-07-06T15:06:40;15.60;99.90
16441;DHT22;8330;-33.858;151.184;2022-07-06T15:09:11;15.60;99.90
16441;DHT22;8330;-33.858;151.184;2022-07-06T15:11:42;15.60;99.90
16441;DHT22;8330;-33.858;151.184;2022-07-06T15:14:13;15.60;99.90
16441;DHT22;8330;-33.858;151.184;2022-07-06T15:16:45;15.60;99.90
16441;DHT22;8330;-33.858;151.184;2022-07-06T15:19:17;15.60;99.90
16441;DHT22;8330;-33.858;151.184;2022-07-06T15:21:49;15.60;99.90
16441;DHT22;8330;-33.858;151.184;2022-07-06T15:24:20;15.60;99.90
16441;DHT22;8330;-33.858;151.184;2022-07-06T15:26:52;15.60;99.90
16441;DHT22;8330;-33.858;151.184;2022-07-06T15:29:22;15.70;99.90
16441;DHT22;8330;-33.858;151.184;2022-07-06T15:31:53;15.60;99.90
16441;DHT22;8330;-33.858;151.184;2022-07-06T15:34:25;15.60;99.90